Time;durP1;ratioP1;P1;durP2;ratioP2;P2;SDS_P1;SDS_P2;PMS_P1;PMS_P2;Temp;Humidity;BMP_temperature;BMP_pressure;BME280_temperature;BME280_humidity;BME280_pressure;Samples;Min_cycle;Max_cycle;Signal;HPM_P1;HPM_P2
2023/01/04 00:00:18;;;;;;;4.85;1.95;;;;;;;6.65;100.00;101487.25;687580;28;1299;-62
2023/01/04 00:00:38;;;;;;;5.47;2.07;;;;;;;6.68;100.00;101486.47;684403;28;4479;-64
2023/01/04 00:01:00;;;;;;;5.77;2.17;;;;;;;6.76;100.00;101479.72;687702;28;1380;-63
2023/01/04 00:01:21;;;;;;;6.75;2.25;;;;;;;6.80;100.00;101491.09;688083;28;1556;-65
2023/01/04 00:01:42;;;;;;;6.43;2.00;;;;;;;6.82;100.00;101485.06;688376;28;1295;-64
2023/01/04 00:02:02;;;;;;;5.75;2.03;;;;;;;6.75;100.00;101485.75;688256;28;1242;-64
2023/01/04 00:02:22;;;;;;;5.07;1.80;;;;;;;6.71;100.00;101480.47;687509;28;1223;-62
2023/01/04 00:02:43;;;;;;;4.15;1.58;;;;;;;6.75;100.00;101480.56;688230;28;1286;-63
2023/01/04 00:03:03;;;;;;;6.27;1.67;;;;;;;6.71;100.00;101483.94;687026;28;1258;-62
2023/01/04 00:03:23;;;;;;;6.80;2.07;;;;;;;6.68;100.00;101483.88;687828;28;1148;-62
2023/01/04 00:03:44;;;;;;;6.28;2.03;;;;;;;6.69;100.00;101479.53;687657;28;4528;-62
2023/01/04 00:04:04;;;;;;;5.43;1.87;;;;;;;6.70;100.00;101476.09;687191;28;1280;-63
2023/01/04 00:04:25;;;;;;;5.63;1.80;;;;;;;6.70;100.00;101477.00;688129;28;1414;-63
2023/01/04 00:04:45;;;;;;;5.90;1.97;;;;;;;6.67;100.00;101476.03;686228;28;4043;-64
2023/01/04 00:05:06;;;;;;;5.85;2.20;;;;;;;6.65;100.00;101476.88;685899;28;2317;-63
2023/01/04 00:05:26;;;;;;;6.90;1.93;;;;;;;6.64;100.00;101469.03;688614;28;1343;-63
2023/01/04 00:05:47;;;;;;;6.00;2.03;;;;;;;6.67;100.00;101471.72;689636;28;1168;-63
2023/01/04 00:06:10;;;;;;;4.97;1.65;;;;;;;6.67;100.00;101474.31;685159;28;1256;-64
2023/01/04 00:06:30;;;;;;;5.57;1.88;;;;;;;6.66;100.00;101475.16;685813;28;1525;-63
2023/01/04 00:06:50;;;;;;;6.03;1.80;;;;;;;6.64;100.00;101474.25;685530;28;4436;-62
2023/01/04 00:07:11;;;;;;;6.77;2.10;;;;;;;6.64;100.00;101476.84;686760;28;1180;-64
2023/01/04 00:07:31;;;;;;;6.65;2.10;;;;;;;6.63;100.00;101469.88;685818;28;4055;-65
2023/01/04 00:07:52;;;;;;;6.60;2.10;;;;;;;6.61;100.00;101474.16;685578;28;1335;-62
2023/01/04 00:08:12;;;;;;;5.70;1.80;;;;;;;6.63;100.00;101475.06;688548;28;1107;-63
2023/01/04 00:08:33;;;;;;;5.80;1.83;;;;;;;6.63;100.00;101481.16;688081;28;1430;-64
2023/01/04 00:08:54;;;;;;;5.13;2.00;;;;;;;6.60;100.00;101473.28;688453;28;1337;-63
2023/01/04 00:09:14;;;;;;;6.53;1.90;;;;;;;6.58;100.00;101471.50;687623;28;1355;-63
2023/01/04 00:09:34;;;;;;;5.27;1.53;;;;;;;6.74;100.00;101478.84;688487;28;1309;-64
2023/01/04 00:09:55;;;;;;;5.70;1.90;;;;;;;6.73;100.00;101474.47;687900;28;4389;-63
2023/01/04 00:10:16;;;;;;;6.65;2.00;;;;;;;6.76;100.00;101466.75;688739;28;1475;-64
2023/01/04 00:10:36;;;;;;;6.30;1.70;;;;;;;6.73;100.00;101468.38;686539;28;4135;-63
2023/01/04 00:11:05;;;;;;;4.38;1.65;;;;;;;6.70;100.00;101466.59;687897;28;1368;-62
2023/01/04 00:11:26;;;;;;;4.65;1.73;;;;;;;6.76;100.00;101471.94;687324;28;1128;-63
2023/01/04 00:11:47;;;;;;;4.95;1.50;;;;;;;6.88;100.00;101473.06;687766;28;1096;-63
2023/01/04 00:12:07;;;;;;;5.82;1.80;;;;;;;6.94;100.00;101465.44;688470;28;1290;-63
2023/01/04 00:12:27;;;;;;;6.60;1.70;;;;;;;6.87;100.00;101468.69;688285;28;1141;-63
2023/01/04 00:12:48;;;;;;;6.38;1.75;;;;;;;6.89;100.00;101467.91;687032;28;4540;-63
2023/01/04 00:13:08;;;;;;;4.50;1.90;;;;;;;6.86;100.00;101466.97;683951;28;1267;-63
2023/01/04 00:13:29;;;;;;;4.70;2.00;;;;;;;6.85;100.00;101471.25;683615;28;1062;-63
2023/01/04 00:13:52;;;;;;;5.43;2.50;;;;;;;6.88;100.00;101473.06;682810;28;1208;-62
2023/01/04 00:14:13;;;;;;;4.97;1.92;;;;;;;6.93;100.00;101481.84;682223;28;1086;-64
2023/01/04 00:14:33;;;;;;;4.57;1.67;;;;;;;6.94;100.00;101476.69;684212;28;1272;-65
2023/01/04 00:14:53;;;;;;;4.68;1.63;;;;;;;6.88;100.00;101475.66;683879;28;4442;-63
2023/01/04 00:15:14;;;;;;;4.77;1.60;;;;;;;6.83;100.00;101465.16;685467;28;1200;-63
2023/01/04 00:15:34;;;;;;;4.53;1.50;;;;;;;6.90;100.00;101466.19;685532;28;1232;-63
2023/01/04 00:15:55;;;;;;;4.97;1.48;;;;;;;6.89;100.00;101470.50;684531;28;4486;-65
2023/01/04 00:16:21;;;;;;;3.10;1.40;;;;;;;6.82;100.00;101464.28;688162;28;1397;-63
2023/01/04 00:16:41;;;;;;;5.43;1.60;;;;;;;6.78;100.00;101465.06;682308;28;2489;-64
2023/01/04 00:17:01;;;;;;;5.23;1.53;;;;;;;6.81;100.00;101465.13;683030;28;1235;-64
2023/01/04 00:17:22;;;;;;;4.77;1.60;;;;;;;6.86;100.00;101467.84;685542;28;4215;-63
2023/01/04 00:17:42;;;;;;;5.05;1.70;;;;;;;6.92;100.00;101464.50;685796;28;1231;-62
2023/01/04 00:18:03;;;;;;;4.82;1.65;;;;;;;6.96;100.00;101458.53;685981;28;1151;-63
2023/01/04 00:18:23;;;;;;;6.43;1.70;;;;;;;6.93;100.00;101463.66;686602;28;1105;-64
2023/01/04 00:18:44;;;;;;;5.28;1.60;;;;;;;6.88;100.00;101468.75;687206;28;4518;-63
2023/01/04 00:19:05;;;;;;;4.87;1.80;;;;;;;6.86;100.00;101469.56;687911;28;1379;-63
2023/01/04 00:19:25;;;;;;;7.70;1.80;;;;;;;6.93;100.00;101469.72;688966;28;1198;-63
2023/01/04 00:19:45;;;;;;;6.03;1.80;;;;;;;6.91;100.00;101454.94;688127;28;3406;-63
2023/01/04 00:20:06;;;;;;;4.22;1.52;;;;;;;6.89;100.00;101459.22;687741;28;4732;-63
2023/01/04 00:20:26;;;;;;;5.17;1.80;;;;;;;6.89;100.00;101456.63;688454;28;1274;-62
2023/01/04 00:20:47;;;;;;;4.53;1.77;;;;;;;6.84;100.00;101453.94;687284;28;3980;-63
2023/01/04 00:21:09;;;;;;;4.63;1.73;;;;;;;6.82;100.00;101459.06;686909;28;1397;-62
2023/01/04 00:21:30;;;;;;;4.68;1.60;;;;;;;6.84;100.00;101453.03;688048;28;1099;-62
2023/01/04 00:21:50;;;;;;;7.13;1.80;;;;;;;6.85;100.00;101455.66;687634;28;4666;-62
2023/01/04 00:22:10;;;;;;;5.93;1.80;;;;;;;6.90;100.00;101453.19;687300;28;1369;-62
2023/01/04 00:22:34;;;;;;;4.43;1.57;;;;;;;6.93;100.00;101453.25;688497;28;1242;-62
2023/01/04 00:22:54;;;;;;;5.05;1.80;;;;;;;6.92;100.00;101451.50;688417;28;1145;-63
2023/01/04 00:23:14;;;;;;;5.77;1.73;;;;;;;6.91;100.00;101454.94;686822;28;1227;-62
2023/01/04 00:23:36;;;;;;;4.63;1.60;;;;;;;6.85;100.00;101453.06;689165;28;1318;-63
2023/01/04 00:23:59;;;;;;;4.75;1.60;;;;;;;6.83;100.00;101452.19;687863;28;1525;-63
2023/01/04 00:24:19;;;;;;;4.07;1.40;;;;;;;6.90;100.00;101453.19;688215;28;1497;-62
2023/01/04 00:24:39;;;;;;;4.93;1.60;;;;;;;6.86;100.00;101459.16;688313;28;4405;-63
2023/01/04 00:25:00;;;;;;;5.37;1.67;;;;;;;6.81;100.00;101449.53;686796;28;4364;-63
2023/01/04 00:25:20;;;;;;;4.80;1.60;;;;;;;6.80;100.00;101455.56;684505;28;1558;-63
2023/01/04 00:25:41;;;;;;;5.85;1.65;;;;;;;6.76;100.00;101451.16;684970;28;1722;-63
2023/01/04 00:26:01;;;;;;;5.77;1.60;;;;;;;6.78;100.00;101448.59;684737;28;1524;-62
2023/01/04 00:26:26;;;;;;;6.55;1.80;;;;;;;6.81;100.00;101459.94;685706;28;1223;-62
2023/01/04 00:26:46;;;;;;;6.03;1.67;;;;;;;6.90;100.00;101456.66;685652;28;1306;-63
2023/01/04 00:27:07;;;;;;;5.13;1.60;;;;;;;6.94;100.00;101453.28;685975;28;1112;-62
2023/01/04 00:27:27;;;;;;;4.40;1.63;;;;;;;6.90;100.00;101450.59;685954;28;3872;-62
2023/01/04 00:27:50;;;;;;;7.17;1.80;;;;;;;6.89;100.00;101452.31;684597;28;4943;-62
2023/01/04 00:28:10;;;;;;;6.55;1.60;;;;;;;6.90;100.00;101451.47;687913;28;1243;-62
2023/01/04 00:28:30;;;;;;;5.17;1.70;;;;;;;6.97;100.00;101450.75;684951;28;1309;-62
2023/01/04 00:29:00;;;;;;;5.75;1.90;;;;;;;7.00;100.00;101444.75;685013;28;1301;-63
2023/01/04 00:29:20;;;;;;;6.57;1.80;;;;;;;6.99;100.00;101448.19;684911;28;1380;-63
2023/01/04 00:29:40;;;;;;;6.90;1.90;;;;;;;6.96;100.00;101449.03;685255;28;1722;-63
2023/01/04 00:30:01;;;;;;;6.35;1.90;;;;;;;7.02;100.00;101448.28;684104;28;1497;-63
2023/01/04 00:30:21;;;;;;;6.83;2.00;;;;;;;7.00;100.00;101442.16;684050;28;1304;-64
2023/01/04 00:30:42;;;;;;;6.35;1.88;;;;;;;6.96;100.00;101442.94;685603;28;4342;-64
2023/01/04 00:31:05;;;;;;;6.67;1.90;;;;;;;6.92;100.00;101442.00;687056;28;3968;-63
2023/01/04 00:31:26;;;;;;;5.28;1.88;;;;;;;6.98;100.00;101447.31;685018;28;1244;-63
2023/01/04 00:31:47;;;;;;;6.15;1.90;;;;;;;6.95;100.00;101448.97;682555;28;2080;-64
2023/01/04 00:32:07;;;;;;;6.87;2.00;;;;;;;6.95;100.00;101446.38;682929;28;1568;-63
2023/01/04 00:32:27;;;;;;;5.55;1.90;;;;;;;6.94;100.00;101447.22;685754;28;1244;-63
2023/01/04 00:32:53;;;;;;;5.43;1.97;;;;;;;6.87;100.00;101446.22;685993;28;1228;-61
2023/01/04 00:33:14;;;;;;;5.05;1.70;;;;;;;6.89;100.00;101446.25;686351;28;1542;-62
2023/01/04 00:33:37;;;;;;;6.88;1.90;;;;;;;6.88;100.00;101440.19;685966;28;1361;-63
2023/01/04 00:33:59;;;;;;;6.65;2.00;;;;;;;6.86;100.00;101436.66;685984;28;4961;-63
2023/01/04 00:34:20;;;;;;;5.97;1.98;;;;;;;6.84;100.00;101432.25;688152;28;1549;-64
2023/01/04 00:34:40;;;;;;;6.07;1.83;;;;;;;6.86;100.00;101428.84;688678;28;1667;-63
2023/01/04 00:35:00;;;;;;;7.40;2.20;;;;;;;6.88;100.00;101434.97;686179;28;4053;-63
2023/01/04 00:35:21;;;;;;;6.55;2.10;;;;;;;6.91;100.00;101426.34;686603;28;1639;-63
2023/01/04 00:35:42;;;;;;;7.97;2.40;;;;;;;6.88;100.00;101429.78;684975;28;1556;-63
2023/01/04 00:36:11;;;;;;;7.28;2.13;;;;;;;6.99;100.00;101423.09;685056;28;1461;-63
2023/01/04 00:36:32;;;;;;;6.07;1.70;;;;;;;6.98;100.00;101425.66;685346;28;1287;-62
2023/01/04 00:36:53;;;;;;;7.07;2.15;;;;;;;7.09;100.00;101423.25;685535;28;4362;-63
2023/01/04 00:37:13;;;;;;;5.30;1.93;;;;;;;7.06;100.00;101423.22;688024;28;1061;-62
2023/01/04 00:37:36;;;;;;;4.60;1.70;;;;;;;6.98;100.00;101420.47;687454;28;4024;-61
2023/01/04 00:37:56;;;;;;;5.25;2.00;;;;;;;7.00;100.00;101429.16;686723;28;1402;-63
2023/01/04 00:38:16;;;;;;;5.90;2.00;;;;;;;6.97;100.00;101418.69;687871;28;1337;-62
2023/01/04 00:38:37;;;;;;;5.93;2.00;;;;;;;6.94;100.00;101421.22;687876;28;1544;-63
2023/01/04 00:39:09;;;;;;;5.90;2.10;;;;;;;6.93;100.00;101419.47;684581;28;4945;-64
2023/01/04 00:39:30;;;;;;;5.07;1.55;;;;;;;6.90;100.00;101422.00;684670;28;1374;-62
2023/01/04 00:39:50;;;;;;;6.03;2.00;;;;;;;6.88;100.00;101421.06;680857;28;4660;-64
2023/01/04 00:40:11;;;;;;;5.73;1.80;;;;;;;6.85;100.00;101424.47;682002;29;1299;-63
2023/01/04 00:40:33;;;;;;;7.85;2.00;;;;;;;6.88;100.00;101408.09;681818;29;1244;-63
2023/01/04 00:40:53;;;;;;;8.75;2.00;;;;;;;6.91;100.00;101413.34;684617;28;4328;-62
2023/01/04 00:41:13;;;;;;;6.27;1.90;;;;;;;6.89;100.00;101410.72;686779;28;1243;-63
2023/01/04 00:41:43;;;;;;;5.57;1.60;;;;;;;7.02;100.00;101411.88;685677;28;1335;-63
2023/01/04 00:42:06;;;;;;;6.00;1.70;;;;;;;7.01;100.00;101404.91;687798;28;1203;-63
2023/01/04 00:42:27;;;;;;;7.30;1.92;;;;;;;7.02;100.00;101405.78;688531;28;1218;-63
2023/01/04 00:42:47;;;;;;;6.40;1.80;;;;;;;7.07;100.00;101404.16;688344;28;4483;-63
2023/01/04 00:43:08;;;;;;;6.65;1.88;;;;;;;7.08;100.00;101401.59;688335;28;1314;-62
2023/01/04 00:43:28;;;;;;;5.40;1.73;;;;;;;7.14;100.00;101412.16;687561;28;3901;-62
2023/01/04 00:43:49;;;;;;;6.55;1.90;;;;;;;7.10;100.00;101405.13;687390;28;1430;-63
2023/01/04 00:44:10;;;;;;;6.68;1.80;;;;;;;7.11;100.00;101411.19;684193;28;1273;-62
2023/01/04 00:44:33;;;;;;;5.30;1.83;;;;;;;7.03;100.00;101408.41;685281;28;1353;-63
2023/01/04 00:44:53;;;;;;;5.63;1.83;;;;;;;7.01;100.00;101404.06;682133;28;1390;-63
2023/01/04 00:45:14;;;;;;;5.37;1.90;;;;;;;7.01;100.00;101406.66;682232;28;1204;-63
2023/01/04 00:45:34;;;;;;;6.47;1.67;;;;;;;7.04;100.00;101409.31;683201;28;1227;-64
2023/01/04 00:45:55;;;;;;;6.80;1.65;;;;;;;6.97;100.00;101403.97;685059;28;4541;-64
2023/01/04 00:46:15;;;;;;;5.03;1.50;;;;;;;6.94;100.00;101409.09;686690;28;4220;-62
2023/01/04 00:46:36;;;;;;;6.25;1.75;;;;;;;6.96;100.00;101402.22;687413;28;1366;-63
2023/01/04 00:46:57;;;;;;;6.37;1.73;;;;;;;7.01;100.00;101407.53;688087;28;1488;-64
2023/01/04 00:47:18;;;;;;;6.22;1.60;;;;;;;6.97;100.00;101408.28;687966;28;1376;-63
2023/01/04 00:47:38;;;;;;;6.60;1.80;;;;;;;6.94;100.00;101403.91;687820;28;1396;-63
2023/01/04 00:47:58;;;;;;;6.85;2.22;;;;;;;6.95;100.00;101402.16;687313;28;1488;-64
2023/01/04 00:48:19;;;;;;;4.93;1.60;;;;;;;6.96;100.00;101402.22;687747;28;1731;-63
2023/01/04 00:48:39;;;;;;;5.03;1.60;;;;;;;7.04;100.00;101399.78;684994;28;4483;-63
2023/01/04 00:49:00;;;;;;;5.23;1.77;;;;;;;7.08;100.00;101412.00;684691;28;1513;-62
2023/01/04 00:49:21;;;;;;;5.90;1.80;;;;;;;7.14;100.00;101406.06;685192;28;1592;-64
2023/01/04 00:49:41;;;;;;;5.15;1.75;;;;;;;7.16;100.00;101399.19;685568;28;1592;-64
2023/01/04 00:50:02;;;;;;;5.40;1.70;;;;;;;7.09;100.00;101402.47;686490;28;4245;-64
2023/01/04 00:50:23;;;;;;;5.70;1.40;;;;;;;7.08;100.00;101400.75;686676;28;1269;-64
2023/01/04 00:50:44;;;;;;;4.38;1.40;;;;;;;7.09;100.00;101403.38;688493;28;1534;-63
2023/01/04 00:51:04;;;;;;;4.65;1.70;;;;;;;7.07;100.00;101398.97;686744;28;1370;-63
2023/01/04 00:51:25;;;;;;;4.55;1.73;;;;;;;7.05;100.00;101398.94;689494;28;1167;-63
2023/01/04 00:51:46;;;;;;;6.72;1.92;;;;;;;7.01;100.00;101391.91;687782;28;4419;-62
2023/01/04 00:52:07;;;;;;;4.83;1.50;;;;;;;6.99;100.00;101398.78;688439;28;1243;-65
2023/01/04 00:52:27;;;;;;;5.68;1.50;;;;;;;6.99;100.00;101394.50;688878;28;1134;-63
2023/01/04 00:52:49;;;;;;;6.70;1.67;;;;;;;7.01;100.00;101393.66;687563;28;1155;-63
2023/01/04 00:53:10;;;;;;;4.50;1.70;;;;;;;7.04;100.00;101399.78;688664;28;1436;-62
2023/01/04 00:53:31;;;;;;;5.30;1.70;;;;;;;7.04;100.00;101397.19;688491;28;1349;-63
2023/01/04 00:53:51;;;;;;;5.80;1.60;;;;;;;7.07;100.00;101389.44;688120;28;1452;-62
2023/01/04 00:54:13;;;;;;;6.37;1.53;;;;;;;7.04;100.00;101391.97;687591;28;1174;-63
2023/01/04 00:54:33;;;;;;;6.07;1.52;;;;;;;7.05;100.00;101391.16;687062;28;4011;-64
2023/01/04 00:54:54;;;;;;;5.33;1.50;;;;;;;7.12;100.00;101392.16;684422;28;4524;-62
2023/01/04 00:55:14;;;;;;;5.15;1.50;;;;;;;7.21;100.00;101391.47;683095;28;1250;-63
2023/01/04 00:55:34;;;;;;;6.43;1.40;;;;;;;7.13;100.00;101389.59;683341;28;1311;-63
2023/01/04 00:55:59;;;;;;;5.33;1.50;;;;;;;7.10;100.00;101389.53;682476;28;1279;-63
2023/01/04 00:56:20;;;;;;;5.10;1.60;;;;;;;7.08;100.00;101386.00;685321;28;1743;-62
2023/01/04 00:56:41;;;;;;;4.22;1.48;;;;;;;7.13;100.00;101380.88;683573;28;1154;-62
2023/01/04 00:57:01;;;;;;;6.13;1.73;;;;;;;7.15;100.00;101387.88;686665;28;1619;-64
2023/01/04 00:57:21;;;;;;;6.37;1.53;;;;;;;7.19;100.00;101382.75;688830;28;4156;-63
2023/01/04 00:57:42;;;;;;;7.97;1.53;;;;;;;7.14;100.00;101388.75;688679;28;4619;-64
2023/01/04 00:58:02;;;;;;;5.97;1.60;;;;;;;7.12;100.00;101387.81;689106;28;1573;-64
2023/01/04 00:58:23;;;;;;;6.25;1.60;;;;;;;7.11;100.00;101390.41;688270;28;1273;-63
2023/01/04 00:58:43;;;;;;;5.33;1.40;;;;;;;7.09;100.00;101382.56;687902;28;1408;-64
2023/01/04 00:59:04;;;;;;;6.75;1.75;;;;;;;7.08;100.00;101387.75;687542;28;1219;-63
2023/01/04 00:59:24;;;;;;;4.95;1.45;;;;;;;7.06;100.00;101392.91;689102;28;1290;-64
2023/01/04 00:59:45;;;;;;;4.47;1.53;;;;;;;7.02;100.00;101385.88;687716;28;1977;-63
2023/01/04 01:00:06;;;;;;;6.33;1.80;;;;;;;6.98;100.00;101390.13;687043;28;3996;-63
2023/01/04 01:00:26;;;;;;;6.25;1.80;;;;;;;6.95;100.00;101382.28;687900;28;1250;-64
2023/01/04 01:00:46;;;;;;;5.03;1.63;;;;;;;6.94;100.00;101383.09;686063;28;4336;-63
2023/01/04 01:01:07;;;;;;;5.23;1.40;;;;;;;6.96;100.00;101385.75;687527;28;1340;-62
2023/01/04 01:01:29;;;;;;;5.97;1.45;;;;;;;7.00;100.00;101390.16;688236;28;1243;-63
2023/01/04 01:01:50;;;;;;;5.20;1.40;;;;;;;6.95;100.00;101390.06;687802;28;1269;-64
2023/01/04 01:02:11;;;;;;;4.33;1.50;;;;;;;6.98;100.00;101387.53;687906;28;1116;-63
2023/01/04 01:02:31;;;;;;;3.85;1.40;;;;;;;6.97;100.00;101382.31;687889;28;1349;-64
2023/01/04 01:02:51;;;;;;;5.60;1.60;;;;;;;6.96;100.00;101390.94;688479;28;1361;-64
2023/01/04 01:03:12;;;;;;;5.72;1.58;;;;;;;6.99;100.00;101388.41;687829;28;1078;-64
2023/01/04 01:03:33;;;;;;;5.87;1.67;;;;;;;7.02;100.00;101385.88;688649;28;1293;-63
2023/01/04 01:04:00;;;;;;;5.85;1.80;;;;;;;7.03;100.00;101389.34;687615;28;4349;-63
2023/01/04 01:04:22;;;;;;;4.13;1.45;;;;;;;6.99;100.00;101385.78;686983;28;4044;-64
2023/01/04 01:04:43;;;;;;;5.18;1.55;;;;;;;7.04;100.00;101386.78;687995;28;1093;-62
2023/01/04 01:05:04;;;;;;;5.33;1.40;;;;;;;7.10;100.00;101386.94;688523;28;1357;-64
2023/01/04 01:05:24;;;;;;;6.13;1.40;;;;;;;7.13;100.00;101388.69;687412;28;1203;-62
2023/01/04 01:05:44;;;;;;;5.05;1.40;;;;;;;7.12;100.00;101386.97;687914;28;1184;-63
2023/01/04 01:06:07;;;;;;;6.23;1.53;;;;;;;7.06;100.00;101384.22;687784;28;1211;-64
2023/01/04 01:06:28;;;;;;;5.60;1.70;;;;;;;7.07;100.00;101385.97;687488;28;1228;-62
2023/01/04 01:06:50;;;;;;;6.63;1.58;;;;;;;7.10;100.00;101384.34;686715;28;4400;-62
2023/01/04 01:07:10;;;;;;;5.30;1.60;;;;;;;7.07;100.00;101383.38;686458;28;4794;-62
2023/01/04 01:07:31;;;;;;;5.23;1.50;;;;;;;7.21;100.00;101384.53;687665;28;1518;-63
2023/01/04 01:07:51;;;;;;;3.42;1.27;;;;;;;7.19;100.00;101377.56;688713;28;1372;-64
2023/01/04 01:08:23;;;;;;;4.07;1.40;;;;;;;7.21;100.00;101378.47;688453;28;1339;-64
2023/01/04 01:08:44;;;;;;;5.38;1.50;;;;;;;7.18;100.00;101381.00;687424;28;1236;-64
2023/01/04 01:09:04;;;;;;;5.63;1.50;;;;;;;7.12;100.00;101377.41;687578;28;1287;-63
2023/01/04 01:09:25;;;;;;;6.18;1.45;;;;;;;7.08;100.00;101380.81;689109;28;1220;-63
2023/01/04 01:09:45;;;;;;;6.30;1.73;;;;;;;7.12;100.00;101376.56;686847;28;4500;-65
2023/01/04 01:10:06;;;;;;;4.93;1.50;;;;;;;7.08;100.00;101374.72;687946;28;1291;-62
2023/01/04 01:10:26;;;;;;;5.30;1.43;;;;;;;7.18;100.00;101376.66;688357;28;1332;-63
2023/01/04 01:10:46;;;;;;;5.60;1.52;;;;;;;7.23;100.00;101374.19;687870;28;1174;-63
2023/01/04 01:11:09;;;;;;;5.63;1.40;;;;;;;7.18;100.00;101371.47;687427;28;1593;-62
2023/01/04 01:11:30;;;;;;;5.52;1.50;;;;;;;7.13;100.00;101373.97;687014;28;1323;-61
2023/01/04 01:11:52;;;;;;;5.53;1.50;;;;;;;7.15;100.00;101371.41;688288;28;1298;-61
2023/01/04 01:12:12;;;;;;;5.50;1.55;;;;;;;7.18;100.00;101373.19;688090;28;1363;-64
2023/01/04 01:12:32;;;;;;;6.83;1.60;;;;;;;7.11;100.00;101373.06;687357;28;4309;-62
2023/01/04 01:12:53;;;;;;;5.83;1.43;;;;;;;7.08;100.00;101378.19;688832;28;4694;-63
2023/01/04 01:13:13;;;;;;;4.47;1.40;;;;;;;7.09;100.00;101374.75;687345;28;1174;-64
2023/01/04 01:13:35;;;;;;;4.83;1.70;;;;;;;7.05;100.00;101365.16;688042;28;1278;-63
2023/01/04 01:13:57;;;;;;;6.85;1.67;;;;;;;7.05;100.00;101370.34;689163;28;1482;-64
2023/01/04 01:14:20;;;;;;;6.50;1.58;;;;;;;6.99;100.00;101370.19;689024;28;1509;-62
2023/01/04 01:14:40;;;;;;;6.35;1.63;;;;;;;6.98;100.00;101376.25;687606;28;1528;-63
2023/01/04 01:15:01;;;;;;;5.05;1.50;;;;;;;6.94;100.00;101367.50;688200;28;1496;-63
2023/01/04 01:15:21;;;;;;;3.50;1.40;;;;;;;6.89;100.00;101365.66;687368;28;1567;-62
2023/01/04 01:15:41;;;;;;;3.97;1.42;;;;;;;6.91;100.00;101371.75;688970;28;4621;-60
2023/01/04 01:16:03;;;;;;;5.53;1.60;;;;;;;6.97;100.00;101361.50;688118;28;1550;-64
2023/01/04 01:16:25;;;;;;;5.10;1.50;;;;;;;7.00;100.00;101364.16;687917;28;3739;-65
2023/01/04 01:16:46;;;;;;;5.82;1.50;;;;;;;7.05;100.00;101361.66;688163;28;1311;-62
2023/01/04 01:17:06;;;;;;;4.03;1.40;;;;;;;7.04;100.00;101373.78;687239;28;4127;-62
2023/01/04 01:17:27;;;;;;;4.07;1.37;;;;;;;7.04;100.00;101363.38;687869;28;1470;-63
2023/01/04 01:17:47;;;;;;;4.82;1.40;;;;;;;7.12;100.00;101367.03;685584;28;1130;-62
2023/01/04 01:18:07;;;;;;;4.90;1.50;;;;;;;7.12;100.00;101366.16;686379;28;1336;-63
2023/01/04 01:18:28;;;;;;;5.35;1.50;;;;;;;7.08;100.00;101365.19;686180;28;1686;-62
2023/01/04 01:18:49;;;;;;;6.35;1.60;;;;;;;7.05;100.00;101365.16;685460;28;4467;-62
2023/01/04 01:19:10;;;;;;;5.97;1.67;;;;;;;7.14;100.00;101367.94;686699;28;1133;-63
2023/01/04 01:19:30;;;;;;;4.70;1.50;;;;;;;7.11;100.00;101365.25;686135;28;1475;-62
2023/01/04 01:19:51;;;;;;;4.43;1.40;;;;;;;7.09;100.00;101364.38;686542;28;4503;-62
2023/01/04 01:20:11;;;;;;;6.17;1.70;;;;;;;7.01;100.00;101365.94;687393;28;1243;-62
2023/01/04 01:20:32;;;;;;;4.82;1.58;;;;;;;7.09;100.00;101359.16;688349;28;1223;-62
2023/01/04 01:20:52;;;;;;;4.47;1.50;;;;;;;7.05;100.00;101366.84;688050;28;1373;-62
2023/01/04 01:21:16;;;;;;;5.43;1.73;;;;;;;6.98;100.00;101356.34;688040;28;1277;-62
2023/01/04 01:21:37;;;;;;;8.52;1.73;;;;;;;7.06;100.00;101366.00;686218;28;4386;-63
2023/01/04 01:21:58;;;;;;;5.63;1.60;;;;;;;7.08;100.00;101359.13;684300;28;1231;-62
2023/01/04 01:22:18;;;;;;;5.95;1.58;;;;;;;7.04;100.00;101357.31;684687;28;4128;-63
2023/01/04 01:22:38;;;;;;;4.90;1.50;;;;;;;6.98;100.00;101360.66;685384;28;1287;-63
2023/01/04 01:22:59;;;;;;;4.97;1.60;;;;;;;7.02;100.00;101359.88;684906;28;1448;-63
2023/01/04 01:23:19;;;;;;;4.68;1.60;;;;;;;6.97;100.00;101356.31;685442;28;1294;-62
2023/01/04 01:23:40;;;;;;;5.17;1.40;;;;;;;6.97;100.00;101358.91;688416;28;1667;-63
2023/01/04 01:24:01;;;;;;;5.57;1.50;;;;;;;7.03;100.00;101358.16;687576;28;1670;-63
2023/01/04 01:24:21;;;;;;;6.57;1.40;;;;;;;7.07;100.00;101353.03;687660;28;1504;-63
2023/01/04 01:24:42;;;;;;;6.33;1.70;;;;;;;7.05;100.00;101354.75;687468;28;4557;-63
2023/01/04 01:25:02;;;;;;;4.68;1.70;;;;;;;6.96;100.00;101354.53;686138;28;3966;-64
2023/01/04 01:25:23;;;;;;;4.93;1.70;;;;;;;6.91;100.00;101354.47;688348;28;1227;-63
2023/01/04 01:25:43;;;;;;;4.07;1.40;;;;;;;6.90;100.00;101350.09;689381;28;1215;-64
2023/01/04 01:26:06;;;;;;;5.03;1.50;;;;;;;6.87;100.00;101355.22;687311;28;1235;-62
2023/01/04 01:26:27;;;;;;;5.63;1.60;;;;;;;6.89;100.00;101350.06;687585;28;1431;-63
2023/01/04 01:26:47;;;;;;;4.70;1.50;;;;;;;6.86;100.00;101355.22;688613;28;1172;-62
2023/01/04 01:27:08;;;;;;;5.93;1.63;;;;;;;6.96;100.00;101344.16;688795;28;1084;-62
2023/01/04 01:27:28;;;;;;;6.70;1.63;;;;;;;6.96;100.00;101350.25;688305;28;1301;-63
2023/01/04 01:27:48;;;;;;;4.67;1.43;;;;;;;6.97;100.00;101351.97;686451;28;4577;-62
2023/01/04 01:28:09;;;;;;;6.77;1.50;;;;;;;6.93;100.00;101354.47;687392;28;1348;-62
2023/01/04 01:28:30;;;;;;;6.50;1.60;;;;;;;6.89;100.00;101352.66;686311;28;4009;-63
2023/01/04 01:28:52;;;;;;;6.35;1.65;;;;;;;6.87;100.00;101351.75;688134;28;1147;-62
2023/01/04 01:29:12;;;;;;;4.90;1.80;;;;;;;6.89;100.00;101355.25;688961;28;1198;-63
2023/01/04 01:29:33;;;;;;;5.47;1.85;;;;;;;6.89;100.00;101348.34;688688;28;1486;-62
2023/01/04 01:29:53;;;;;;;4.33;1.40;;;;;;;6.86;100.00;101347.41;688508;28;1186;-63
2023/01/04 01:30:13;;;;;;;6.00;1.50;;;;;;;6.82;100.00;101346.44;687315;28;1100;-63
2023/01/04 01:30:39;;;;;;;4.65;1.40;;;;;;;6.76;100.00;101335.94;688186;28;1129;-64
2023/01/04 01:31:05;;;;;;;5.45;1.60;;;;;;;6.75;100.00;101352.38;686594;28;4721;-62
2023/01/04 01:31:27;;;;;;;3.83;1.40;;;;;;;6.75;100.00;101345.44;688537;28;1285;-63
2023/01/04 01:31:48;;;;;;;5.38;1.60;;;;;;;6.77;100.00;101348.06;687599;28;1258;-62
2023/01/04 01:32:08;;;;;;;5.90;1.63;;;;;;;6.76;100.00;101347.19;687530;28;1217;-62
2023/01/04 01:32:28;;;;;;;5.15;1.50;;;;;;;6.76;100.00;101342.00;688298;28;1388;-63
2023/01/04 01:32:49;;;;;;;4.40;1.50;;;;;;;6.79;100.00;101356.78;687801;28;1364;-61
2023/01/04 01:33:12;;;;;;;4.97;1.53;;;;;;;6.90;100.00;101354.44;688244;28;1281;-63
2023/01/04 01:33:34;;;;;;;6.32;1.60;;;;;;;6.87;100.00;101341.34;688309;28;1246;-63
2023/01/04 01:33:56;;;;;;;5.88;1.50;;;;;;;6.89;100.00;101347.47;686929;28;4343;-63
2023/01/04 01:34:16;;;;;;;6.05;1.50;;;;;;;6.99;100.00;101344.19;684106;28;1604;-63
2023/01/04 01:34:36;;;;;;;6.13;1.70;;;;;;;6.99;100.00;101337.31;684289;28;1078;-63
2023/01/04 01:34:57;;;;;;;4.50;1.70;;;;;;;6.93;100.00;101342.34;683165;28;4057;-63
2023/01/04 01:35:17;;;;;;;4.73;1.50;;;;;;;6.89;100.00;101347.47;683836;28;1304;-64
2023/01/04 01:35:37;;;;;;;3.73;1.40;;;;;;;6.82;100.00;101342.13;684757;28;1328;-63
2023/01/04 01:36:02;;;;;;;4.20;1.50;;;;;;;6.77;100.00;101338.56;684204;28;1329;-63
2023/01/04 01:36:25;;;;;;;5.40;1.73;;;;;;;6.81;100.00;101342.09;688697;28;1175;-62
2023/01/04 01:36:45;;;;;;;5.28;1.70;;;;;;;6.77;100.00;101340.28;684153;28;4396;-63
2023/01/04 01:37:05;;;;;;;5.17;1.60;;;;;;;6.76;100.00;101336.81;684250;28;1145;-63
2023/01/04 01:37:26;;;;;;;5.37;1.90;;;;;;;6.76;100.00;101342.00;684256;28;1116;-62
2023/01/04 01:37:46;;;;;;;6.23;1.80;;;;;;;6.76;100.00;101338.53;682057;28;1419;-62
2023/01/04 01:38:06;;;;;;;4.43;1.67;;;;;;;6.74;100.00;101337.59;683753;28;1073;-62
2023/01/04 01:38:27;;;;;;;3.93;1.77;;;;;;;6.76;100.00;101338.53;683332;28;1312;-63
2023/01/04 01:38:47;;;;;;;5.10;1.60;;;;;;;6.73;100.00;101336.75;682761;28;4819;-63
2023/01/04 01:39:08;;;;;;;6.33;1.60;;;;;;;6.76;100.00;101335.94;682920;28;1448;-63
2023/01/04 01:39:28;;;;;;;5.60;1.70;;;;;;;6.70;100.00;101333.19;683249;28;4031;-63
2023/01/04 01:39:48;;;;;;;4.13;1.60;;;;;;;6.68;100.00;101338.34;684649;28;4478;-63
2023/01/04 01:40:10;;;;;;;6.30;1.60;;;;;;;6.71;100.00;101340.16;685104;28;1358;-63
2023/01/04 01:40:30;;;;;;;9.15;1.70;;;;;;;6.77;100.00;101342.88;686053;28;1387;-63